sensor_id;sensor_type;location;lat;lon;timestamp;temperature;humidity
48551;DHT22;34397;51.176;6.738;2022-09-09T00:00:51;17.90;58.00
48551;DHT22;34397;51.176;6.738;2022-09-09T00:03:27;17.90;58.10
48551;DHT22;34397;51.176;6.738;2022-09-09T00:06:08;17.90;57.80
48551;DHT22;34397;51.176;6.738;2022-09-09T00:08:53;17.90;57.50
48551;DHT22;34397;51.176;6.738;2022-09-09T00:11:39;17.90;58.20
48551;DHT22;34397;51.176;6.738;2022-09-09T00:14:19;17.90;57.70
48551;DHT22;34397;51.176;6.738;2022-09-09T00:16:57;17.90;57.90
48551;DHT22;34397;51.176;6.738;2022-09-09T00:19:38;17.80;58.00
48551;DHT22;34397;51.176;6.738;2022-09-09T00:22:16;17.80;58.10
48551;DHT22;34397;51.176;6.738;2022-09-09T00:24:51;17.80;58.00
48551;DHT22;34397;51.176;6.738;2022-09-09T00:27:31;17.80;58.40
48551;DHT22;34397;51.176;6.738;2022-09-09T00:30:15;17.70;58.70
48551;DHT22;34397;51.176;6.738;2022-09-09T00:32:53;17.70;58.90
48551;DHT22;34397;51.176;6.738;2022-09-09T00:35:31;17.60;58.80
48551;DHT22;34397;51.176;6.738;2022-09-09T00:38:12;17.60;58.70
48551;DHT22;34397;51.176;6.738;2022-09-09T00:40:49;17.60;59.10
48551;DHT22;34397;51.176;6.738;2022-09-09T00:43:29;17.60;58.90
48551;DHT22;34397;51.176;6.738;2022-09-09T00:46:24;17.60;58.70
48551;DHT22;34397;51.176;6.738;2022-09-09T00:49:22;17.70;58.80
48551;DHT22;34397;51.176;6.738;2022-09-09T00:52:08;17.60;59.20
48551;DHT22;34397;51.176;6.738;2022-09-09T00:54:55;17.60;58.70
48551;DHT22;34397;51.176;6.738;2022-09-09T00:57:34;17.60;58.70
48551;DHT22;34397;51.176;6.738;2022-09-09T01:00:23;17.60;58.70
48551;DHT22;34397;51.176;6.738;2022-09-09T01:03:18;17.50;58.90
48551;DHT22;34397;51.176;6.738;2022-09-09T01:06:02;17.50;58.90
48551;DHT22;34397;51.176;6.738;2022-09-09T01:09:05;17.50;59.30
48551;DHT22;34397;51.176;6.738;2022-09-09T01:11:49;17.50;59.50
48551;DHT22;34397;51.176;6.738;2022-09-09T01:14:47;17.50;59.10
48551;DHT22;34397;51.176;6.738;2022-09-09T01:17:24;17.50;59.00
48551;DHT22;34397;51.176;6.738;2022-09-09T01:20:05;17.50;59.20
48551;DHT22;34397;51.176;6.738;2022-09-09T01:22:53;17.50;59.10
48551;DHT22;34397;51.176;6.738;2022-09-09T01:26:19;17.50;59.30
48551;DHT22;34397;51.176;6.738;2022-09-09T01:28:55;17.40;58.80
48551;DHT22;34397;51.176;6.738;2022-09-09T01:31:28;17.40;58.70
48551;DHT22;34397;51.176;6.738;2022-09-09T01:34:09;17.40;59.00
48551;DHT22;34397;51.176;6.738;2022-09-09T01:36:46;17.40;59.00
48551;DHT22;34397;51.176;6.738;2022-09-09T01:39:21;17.30;58.90
48551;DHT22;34397;51.176;6.738;2022-09-09T01:41:55;17.30;58.70
48551;DHT22;34397;51.176;6.738;2022-09-09T01:44:28;17.30;58.80
48551;DHT22;34397;51.176;6.738;2022-09-09T01:47:02;17.30;58.60
48551;DHT22;34397;51.176;6.738;2022-09-09T01:49:34;17.30;58.60
48551;DHT22;34397;51.176;6.738;2022-09-09T01:52:06;17.30;58.60
48551;DHT22;34397;51.176;6.738;2022-09-09T01:54:39;17.30;58.60
48551;DHT22;34397;51.176;6.738;2022-09-09T01:57:18;17.20;58.70
48551;DHT22;34397;51.176;6.738;2022-09-09T02:00:01;17.20;58.90
48551;DHT22;34397;51.176;6.738;2022-09-09T02:02:43;17.20;59.00
48551;DHT22;34397;51.176;6.738;2022-09-09T02:05:25;17.20;59.10
48551;DHT22;34397;51.176;6.738;2022-09-09T02:08:06;17.20;59.40
48551;DHT22;34397;51.176;6.738;2022-09-09T02:10:44;17.20;59.40
48551;DHT22;34397;51.176;6.738;2022-09-09T02:13:21;17.20;59.50
48551;DHT22;34397;51.176;6.738;2022-09-09T02:15:57;17.20;59.60
48551;DHT22;34397;51.176;6.738;2022-09-09T02:18:35;17.20;59.50
48551;DHT22;34397;51.176;6.738;2022-09-09T02:21:11;17.20;59.70
48551;DHT22;34397;51.176;6.738;2022-09-09T02:23:45;17.20;59.70
48551;DHT22;34397;51.176;6.738;2022-09-09T02:26:20;17.20;59.90
48551;DHT22;34397;51.176;6.738;2022-09-09T02:28:56;17.20;59.80
48551;DHT22;34397;51.176;6.738;2022-09-09T02:31:29;17.30;59.60
48551;DHT22;34397;51.176;6.738;2022-09-09T02:34:02;17.30;59.60
48551;DHT22;34397;51.176;6.738;2022-09-09T02:36:36;17.30;59.50
48551;DHT22;34397;51.176;6.738;2022-09-09T02:39:10;17.30;59.40
48551;DHT22;34397;51.176;6.738;2022-09-09T02:41:42;17.30;59.30
48551;DHT22;34397;51.176;6.738;2022-09-09T02:44:17;17.40;58.80
48551;DHT22;34397;51.176;6.738;2022-09-09T02:47:09;17.40;58.90
48551;DHT22;34397;51.176;6.738;2022-09-09T02:49:56;17.40;58.90
48551;DHT22;34397;51.176;6.738;2022-09-09T02:52:42;17.40;59.00
48551;DHT22;34397;51.176;6.738;2022-09-09T02:55:26;17.40;59.00
48551;DHT22;34397;51.176;6.738;2022-09-09T02:58:09;17.30;59.00
48551;DHT22;34397;51.176;6.738;2022-09-09T03:00:46;17.40;59.00
48551;DHT22;34397;51.176;6.738;2022-09-09T03:03:19;17.40;58.70
48551;DHT22;34397;51.176;6.738;2022-09-09T03:05:52;17.40;58.70
48551;DHT22;34397;51.176;6.738;2022-09-09T03:08:24;17.40;58.70
48551;DHT22;34397;51.176;6.738;2022-09-09T03:10:59;17.40;58.70
48551;DHT22;34397;51.176;6.738;2022-09-09T03:13:31;17.30;58.80
48551;DHT22;34397;51.176;6.738;2022-09-09T03:16:05;17.30;58.70
48551;DHT22;34397;51.176;6.738;2022-09-09T03:18:37;17.30;58.60
48551;DHT22;34397;51.176;6.738;2022-09-09T03:21:09;17.30;58.70
48551;DHT22;34397;51.176;6.738;2022-09-09T03:23:41;17.30;58.60
48551;DHT22;34397;51.176;6.738;2022-09-09T03:26:13;17.30;58.60
48551;DHT22;34397;51.176;6.738;2022-09-09T03:28:46;17.40;58.50
48551;DHT22;34397;51.176;6.738;2022-09-09T03:31:19;17.30;58.50
48551;DHT22;34397;51.176;6.738;2022-09-09T03:33:51;17.40;58.40
48551;DHT22;34397;51.176;6.738;2022-09-09T03:36:23;17.30;58.40
48551;DHT22;34397;51.176;6.738;2022-09-09T03:38:56;17.30;58.40
48551;DHT22;34397;51.176;6.738;2022-09-09T03:41:29;17.30;58.40
48551;DHT22;34397;51.176;6.738;2022-09-09T03:44:02;17.30;58.40
48551;DHT22;34397;51.176;6.738;2022-09-09T03:46:35;17.30;58.30
48551;DHT22;34397;51.176;6.738;2022-09-09T03:49:08;17.30;58.40
48551;DHT22;34397;51.176;6.738;2022-09-09T03:51:41;17.30;58.30
48551;DHT22;34397;51.176;6.738;2022-09-09T03:54:12;17.30;58.20
48551;DHT22;34397;51.176;6.738;2022-09-09T03:56:44;17.30;58.20
48551;DHT22;34397;51.176;6.738;2022-09-09T03:59:16;17.30;58.20
48551;DHT22;34397;51.176;6.738;2022-09-09T04:01:49;17.30;58.10
48551;DHT22;34397;51.176;6.738;2022-09-09T04:04:21;17.20;58.10
48551;DHT22;34397;51.176;6.738;2022-09-09T04:06:53;17.20;57.90
48551;DHT22;34397;51.176;6.738;2022-09-09T04:09:25;17.20;58.30
48551;DHT22;34397;51.176;6.738;2022-09-09T04:11:56;17.10;58.50
48551;DHT22;34397;51.176;6.738;2022-09-09T04:14:28;17.10;58.60
48551;DHT22;34397;51.176;6.738;2022-09-09T04:17:01;17.00;58.60
48551;DHT22;34397;51.176;6.738;2022-09-09T04:19:36;17.00;58.60
48551;DHT22;34397;51.176;6.738;2022-09-09T04:22:08;17.00;58.70
48551;DHT22;34397;51.176;6.738;2022-09-09T04:24:40;17.00;58.80
48551;DHT22;34397;51.176;6.738;2022-09-09T04:27:12;16.90;58.90
48551;DHT22;34397;51.176;6.738;2022-09-09T04:29:43;16.90;59.10
48551;DHT22;34397;51.176;6.738;2022-09-09T04:32:17;16.90;59.20
48551;DHT22;34397;51.176;6.738;2022-09-09T04:34:49;16.80;59.30
48551;DHT22;34397;51.176;6.738;2022-09-09T04:37:20;16.80;59.40
48551;DHT22;34397;51.176;6.738;2022-09-09T04:39:52;16.80;59.30
48551;DHT22;34397;51.176;6.738;2022-09-09T04:42:24;16.80;59.40
48551;DHT22;34397;51.176;6.738;2022-09-09T04:44:56;16.90;59.50
48551;DHT22;34397;51.176;6.738;2022-09-09T04:47:29;16.90;59.50
48551;DHT22;34397;51.176;6.738;2022-09-09T04:50:01;16.80;59.60
48551;DHT22;34397;51.176;6.738;2022-09-09T04:52:34;16.90;59.00
48551;DHT22;34397;51.176;6.738;2022-09-09T04:55:07;17.00;59.30
48551;DHT22;34397;51.176;6.738;2022-09-09T04:57:39;17.00;59.30
48551;DHT22;34397;51.176;6.738;2022-09-09T05:00:12;17.00;59.30
48551;DHT22;34397;51.176;6.738;2022-09-09T05:02:47;17.00;59.20
48551;DHT22;34397;51.176;6.738;2022-09-09T05:05:19;17.00;59.30
48551;DHT22;34397;51.176;6.738;2022-09-09T05:07:50;17.10;59.20
48551;DHT22;34397;51.176;6.738;2022-09-09T05:10:22;17.10;59.10
48551;DHT22;34397;51.176;6.738;2022-09-09T05:12:54;17.10;59.20
48551;DHT22;34397;51.176;6.738;2022-09-09T05:15:26;17.10;59.00
48551;DHT22;34397;51.176;6.738;2022-09-09T05:18:00;17.10;59.00
48551;DHT22;34397;51.176;6.738;2022-09-09T05:20:32;17.20;59.00
48551;DHT22;34397;51.176;6.738;2022-09-09T05:23:04;17.20;58.80
48551;DHT22;34397;51.176;6.738;2022-09-09T05:25:39;17.20;58.80
48551;DHT22;34397;51.176;6.738;2022-09-09T05:28:12;17.20;58.90
48551;DHT22;34397;51.176;6.738;2022-09-09T05:30:43;17.20;58.90
48551;DHT22;34397;51.176;6.738;2022-09-09T05:33:17;17.20;59.00
48551;DHT22;34397;51.176;6.738;2022-09-09T05:35:55;17.20;59.10
48551;DHT22;34397;51.176;6.738;2022-09-09T05:38:28;17.20;59.20
48551;DHT22;34397;51.176;6.738;2022-09-09T05:41:01;17.20;59.10
48551;DHT22;34397;51.176;6.738;2022-09-09T05:43:33;17.20;59.00
48551;DHT22;34397;51.176;6.738;2022-09-09T05:46:07;17.20;59.00
48551;DHT22;34397;51.176;6.738;2022-09-09T05:48:43;17.20;59.00
48551;DHT22;34397;51.176;6.738;2022-09-09T05:51:18;17.20;59.00
48551;DHT22;34397;51.176;6.738;2022-09-09T05:53:52;17.20;59.00
48551;DHT22;34397;51.176;6.738;2022-09-09T05:56:27;17.20;58.80
48551;DHT22;34397;51.176;6.738;2022-09-09T05:58:59;17.20;58.90
48551;DHT22;34397;51.176;6.738;2022-09-09T06:01:33;17.30;58.80
48551;DHT22;34397;51.176;6.738;2022-09-09T06:04:07;17.30;58.60
48551;DHT22;34397;51.176;6.738;2022-09-09T06:06:39;17.30;58.50
48551;DHT22;34397;51.176;6.738;2022-09-09T06:09:12;17.40;58.50
48551;DHT22;34397;51.176;6.738;2022-09-09T06:11:44;17.40;58.10
48551;DHT22;34397;51.176;6.738;2022-09-09T06:14:16;17.40;58.20
48551;DHT22;34397;51.176;6.738;2022-09-09T06:16:48;17.40;58.20
48551;DHT22;34397;51.176;6.738;2022-09-09T06:19:21;17.50;57.90
48551;DHT22;34397;51.176;6.738;2022-09-09T06:21:54;17.50;58.00
48551;DHT22;34397;51.176;6.738;2022-09-09T06:24:26;17.50;58.00
48551;DHT22;34397;51.176;6.738;2022-09-09T06:27:00;17.50;57.90
48551;DHT22;34397;51.176;6.738;2022-09-09T06:29:32;17.40;57.80
48551;DHT22;34397;51.176;6.738;2022-09-09T06:32:04;17.50;58.00
48551;DHT22;34397;51.176;6.738;2022-09-09T06:34:40;17.50;58.00
48551;DHT22;34397;51.176;6.738;2022-09-09T06:37:12;17.40;57.90
48551;DHT22;34397;51.176;6.738;2022-09-09T06:39:43;17.50;57.70
48551;DHT22;34397;51.176;6.738;2022-09-09T06:42:15;17.50;57.70
48551;DHT22;34397;51.176;6.738;2022-09-09T06:44:48;17.40;57.50
48551;DHT22;34397;51.176;6.738;2022-09-09T06:47:20;17.40;57.60
48551;DHT22;34397;51.176;6.738;2022-09-09T06:49:53;17.40;57.50
48551;DHT22;34397;51.176;6.738;2022-09-09T06:52:25;17.40;57.70
48551;DHT22;34397;51.176;6.738;2022-09-09T06:54:57;17.40;57.50
48551;DHT22;34397;51.176;6.738;2022-09-09T06:57:29;17.50;57.10
48551;DHT22;34397;51.176;6.738;2022-09-09T07:00:02;17.50;57.20
48551;DHT22;34397;51.176;6.738;2022-09-09T07:02:35;17.50;57.10
48551;DHT22;34397;51.176;6.738;2022-09-09T07:05:11;17.60;56.80
48551;DHT22;34397;51.176;6.738;2022-09-09T07:07:46;17.60;56.40
48551;DHT22;34397;51.176;6.738;2022-09-09T07:10:18;17.70;56.20
48551;DHT22;34397;51.176;6.738;2022-09-09T07:12:50;17.80;56.10
48551;DHT22;34397;51.176;6.738;2022-09-09T07:15:23;17.80;56.10
48551;DHT22;34397;51.176;6.738;2022-09-09T07:17:55;17.90;56.30
48551;DHT22;34397;51.176;6.738;2022-09-09T07:20:28;18.00;55.30
48551;DHT22;34397;51.176;6.738;2022-09-09T07:23:00;18.00;54.30
48551;DHT22;34397;51.176;6.738;2022-09-09T07:25:32;18.10;54.10
48551;DHT22;34397;51.176;6.738;2022-09-09T07:28:03;18.10;54.20
48551;DHT22;34397;51.176;6.738;2022-09-09T07:30:35;18.00;53.80
48551;DHT22;34397;51.176;6.738;2022-09-09T07:33:07;18.00;54.00
48551;DHT22;34397;51.176;6.738;2022-09-09T07:35:41;18.00;54.30
48551;DHT22;34397;51.176;6.738;2022-09-09T07:38:13;17.90;53.30
48551;DHT22;34397;51.176;6.738;2022-09-09T07:40:45;17.80;53.30
48551;DHT22;34397;51.176;6.738;2022-09-09T07:43:17;17.80;53.90
48551;DHT22;34397;51.176;6.738;2022-09-09T07:45:57;17.80;53.80
48551;DHT22;34397;51.176;6.738;2022-09-09T07:48:29;17.80;53.30
48551;DHT22;34397;51.176;6.738;2022-09-09T07:51:08;17.80;54.00
48551;DHT22;34397;51.176;6.738;2022-09-09T07:53:42;17.90;53.70
48551;DHT22;34397;51.176;6.738;2022-09-09T07:56:16;17.90;53.20
48551;DHT22;34397;51.176;6.738;2022-09-09T07:58:48;17.90;52.40
48551;DHT22;34397;51.176;6.738;2022-09-09T08:01:23;17.90;52.70
48551;DHT22;34397;51.176;6.738;2022-09-09T08:03:58;17.90;52.10
48551;DHT22;34397;51.176;6.738;2022-09-09T08:06:35;18.00;52.10
48551;DHT22;34397;51.176;6.738;2022-09-09T08:09:09;18.00;51.80
48551;DHT22;34397;51.176;6.738;2022-09-09T08:11:42;18.00;51.60
48551;DHT22;34397;51.176;6.738;2022-09-09T08:14:14;18.00;52.20
48551;DHT22;34397;51.176;6.738;2022-09-09T08:16:47;18.10;51.90
48551;DHT22;34397;51.176;6.738;2022-09-09T08:19:20;18.10;51.70
48551;DHT22;34397;51.176;6.738;2022-09-09T08:21:53;18.10;51.90
48551;DHT22;34397;51.176;6.738;2022-09-09T08:24:25;18.20;51.80
48551;DHT22;34397;51.176;6.738;2022-09-09T08:26:57;18.30;51.40
48551;DHT22;34397;51.176;6.738;2022-09-09T08:29:28;18.40;51.30
48551;DHT22;34397;51.176;6.738;2022-09-09T08:32:00;18.50;51.10
48551;DHT22;34397;51.176;6.738;2022-09-09T08:34:33;18.50;50.70
48551;DHT22;34397;51.176;6.738;2022-09-09T08:37:07;18.70;50.50
48551;DHT22;34397;51.176;6.738;2022-09-09T08:39:39;18.70;50.30
48551;DHT22;34397;51.176;6.738;2022-09-09T08:42:38;18.80;50.00
48551;DHT22;34397;51.176;6.738;2022-09-09T08:45:20;18.80;50.50
48551;DHT22;34397;51.176;6.738;2022-09-09T08:48:07;18.90;49.30
48551;DHT22;34397;51.176;6.738;2022-09-09T08:50:45;19.00;49.30
48551;DHT22;34397;51.176;6.738;2022-09-09T08:53:23;19.10;49.10
48551;DHT22;34397;51.176;6.738;2022-09-09T08:55:57;19.10;48.80
48551;DHT22;34397;51.176;6.738;2022-09-09T08:58:33;19.10;49.20
48551;DHT22;34397;51.176;6.738;2022-09-09T09:01:18;19.20;48.60
48551;DHT22;34397;51.176;6.738;2022-09-09T09:04:00;19.20;48.20
48551;DHT22;34397;51.176;6.738;2022-09-09T09:06:54;19.20;48.60
48551;DHT22;34397;51.176;6.738;2022-09-09T09:09:36;19.20;47.70
48551;DHT22;34397;51.176;6.738;2022-09-09T09:12:16;19.20;47.70
48551;DHT22;34397;51.176;6.738;2022-09-09T09:14:51;19.10;47.80
48551;DHT22;34397;51.176;6.738;2022-09-09T09:17:25;19.10;47.90
48551;DHT22;34397;51.176;6.738;2022-09-09T09:20:03;19.10;47.80
48551;DHT22;34397;51.176;6.738;2022-09-09T09:22:43;19.10;47.60
48551;DHT22;34397;51.176;6.738;2022-09-09T09:25:21;19.00;47.70
48551;DHT22;34397;51.176;6.738;2022-09-09T09:27:58;19.00;47.50
48551;DHT22;34397;51.176;6.738;2022-09-09T09:30:35;19.00;47.60
48551;DHT22;34397;51.176;6.738;2022-09-09T09:33:15;19.00;47.20
48551;DHT22;34397;51.176;6.738;2022-09-09T09:35:49;19.00;47.40
48551;DHT22;34397;51.176;6.738;2022-09-09T09:38:23;19.10;48.60
48551;DHT22;34397;51.176;6.738;2022-09-09T09:40:59;19.10;47.40
48551;DHT22;34397;51.176;6.738;2022-09-09T09:43:32;19.20;47.20
48551;DHT22;34397;51.176;6.738;2022-09-09T09:46:05;19.20;46.70
48551;DHT22;34397;51.176;6.738;2022-09-09T09:48:56;19.30;47.20
48551;DHT22;34397;51.176;6.738;2022-09-09T09:51:30;19.30;47.10
48551;DHT22;34397;51.176;6.738;2022-09-09T09:54:09;19.40;46.60
48551;DHT22;34397;51.176;6.738;2022-09-09T09:56:48;19.30;45.70
48551;DHT22;34397;51.176;6.738;2022-09-09T09:59:21;19.30;46.80
48551;DHT22;34397;51.176;6.738;2022-09-09T10:01:54;19.30;46.70
48551;DHT22;34397;51.176;6.738;2022-09-09T10:04:47;19.30;47.20
48551;DHT22;34397;51.176;6.738;2022-09-09T10:07:21;19.30;45.20
48551;DHT22;34397;51.176;6.738;2022-09-09T10:09:55;19.40;46.10
48551;DHT22;34397;51.176;6.738;2022-09-09T10:12:40;19.40;47.00
48551;DHT22;34397;51.176;6.738;2022-09-09T10:15:31;19.50;46.10
48551;DHT22;34397;51.176;6.738;2022-09-09T10:18:18;19.50;45.50
48551;DHT22;34397;51.176;6.738;2022-09-09T10:21:01;19.50;45.50
48551;DHT22;34397;51.176;6.738;2022-09-09T10:23:51;19.70;46.80
48551;DHT22;34397;51.176;6.738;2022-09-09T10:26:38;19.90;46.10
48551;DHT22;34397;51.176;6.738;2022-09-09T10:29:32;19.90;44.50
48551;DHT22;34397;51.176;6.738;2022-09-09T10:32:33;19.90;44.90
48551;DHT22;34397;51.176;6.738;2022-09-09T10:35:12;20.00;44.90
48551;DHT22;34397;51.176;6.738;2022-09-09T10:38:13;20.00;44.80
48551;DHT22;34397;51.176;6.738;2022-09-09T10:41:18;20.00;45.20
48551;DHT22;34397;51.176;6.738;2022-09-09T10:44:20;20.00;45.10
48551;DHT22;34397;51.176;6.738;2022-09-09T10:47:25;20.00;44.30
48551;DHT22;34397;51.176;6.738;2022-09-09T10:50:24;20.00;45.30
48551;DHT22;34397;51.176;6.738;2022-09-09T10:53:09;20.00;45.30
48551;DHT22;34397;51.176;6.738;2022-09-09T10:55:51;19.90;45.10
48551;DHT22;34397;51.176;6.738;2022-09-09T10:58:29;20.00;45.70
48551;DHT22;34397;51.176;6.738;2022-09-09T11:01:12;19.90;44.50
48551;DHT22;34397;51.176;6.738;2022-09-09T11:03:53;19.90;44.80
48551;DHT22;34397;51.176;6.738;2022-09-09T11:06:32;19.90;44.90
48551;DHT22;34397;51.176;6.738;2022-09-09T11:09:15;19.90;45.50
48551;DHT22;34397;51.176;6.738;2022-09-09T11:11:52;19.80;45.10
48551;DHT22;34397;51.176;6.738;2022-09-09T11:14:29;19.70;45.40
48551;DHT22;34397;51.176;6.738;2022-09-09T11:17:08;19.50;46.00
48551;DHT22;34397;51.176;6.738;2022-09-09T11:19:43;19.40;46.10
48551;DHT22;34397;51.176;6.738;2022-09-09T11:22:21;19.20;49.60
48551;DHT22;34397;51.176;6.738;2022-09-09T11:25:00;19.00;50.40
48551;DHT22;34397;51.176;6.738;2022-09-09T11:27:41;18.70;50.10
48551;DHT22;34397;51.176;6.738;2022-09-09T11:30:20;18.60;51.10
48551;DHT22;34397;51.176;6.738;2022-09-09T11:33:13;18.50;52.00
48551;DHT22;34397;51.176;6.738;2022-09-09T11:36:07;18.70;53.80
48551;DHT22;34397;51.176;6.738;2022-09-09T11:38:51;18.90;49.80
48551;DHT22;34397;51.176;6.738;2022-09-09T11:41:34;19.10;49.70
48551;DHT22;34397;51.176;6.738;2022-09-09T11:44:11;19.30;48.90
48551;DHT22;34397;51.176;6.738;2022-09-09T11:46:46;19.50;49.10
48551;DHT22;34397;51.176;6.738;2022-09-09T11:49:28;19.60;48.40
48551;DHT22;34397;51.176;6.738;2022-09-09T11:52:11;19.70;47.50
48551;DHT22;34397;51.176;6.738;2022-09-09T11:54:48;19.70;47.80
48551;DHT22;34397;51.176;6.738;2022-09-09T11:57:25;19.70;47.70
48551;DHT22;34397;51.176;6.738;2022-09-09T12:00:03;19.70;47.70
48551;DHT22;34397;51.176;6.738;2022-09-09T12:02:36;19.60;48.30
48551;DHT22;34397;51.176;6.738;2022-09-09T12:05:11;19.50;47.00
48551;DHT22;34397;51.176;6.738;2022-09-09T12:07:51;19.50;48.90
48551;DHT22;34397;51.176;6.738;2022-09-09T12:10:27;19.60;48.30
48551;DHT22;34397;51.176;6.738;2022-09-09T12:13:14;19.90;48.00
48551;DHT22;34397;51.176;6.738;2022-09-09T12:15:49;20.20;46.50
48551;DHT22;34397;51.176;6.738;2022-09-09T12:18:24;20.60;45.90
48551;DHT22;34397;51.176;6.738;2022-09-09T12:21:02;20.90;45.20
48551;DHT22;34397;51.176;6.738;2022-09-09T12:23:44;21.10;45.30
48551;DHT22;34397;51.176;6.738;2022-09-09T12:26:30;21.40;44.20
48551;DHT22;34397;51.176;6.738;2022-09-09T12:29:15;21.60;44.50
48551;DHT22;34397;51.176;6.738;2022-09-09T12:31:58;21.50;42.40
48551;DHT22;34397;51.176;6.738;2022-09-09T12:34:38;21.30;42.90
48551;DHT22;34397;51.176;6.738;2022-09-09T12:37:21;21.10;42.90
48551;DHT22;34397;51.176;6.738;2022-09-09T12:40:00;20.90;43.30
48551;DHT22;34397;51.176;6.738;2022-09-09T12:42:40;20.70;43.40
48551;DHT22;34397;51.176;6.738;2022-09-09T12:45:17;20.50;44.40
48551;DHT22;34397;51.176;6.738;2022-09-09T12:47:54;20.30;44.90
48551;DHT22;34397;51.176;6.738;2022-09-09T12:50:30;20.20;46.10
48551;DHT22;34397;51.176;6.738;2022-09-09T12:53:09;20.00;46.10
48551;DHT22;34397;51.176;6.738;2022-09-09T12:55:51;20.00;48.20
48551;DHT22;34397;51.176;6.738;2022-09-09T12:58:24;20.10;47.00
48551;DHT22;34397;51.176;6.738;2022-09-09T13:00:59;20.20;46.80
48551;DHT22;34397;51.176;6.738;2022-09-09T13:03:42;20.30;46.90
48551;DHT22;34397;51.176;6.738;2022-09-09T13:06:20;20.60;47.70
48551;DHT22;34397;51.176;6.738;2022-09-09T13:08:57;20.90;47.10
48551;DHT22;34397;51.176;6.738;2022-09-09T13:11:35;21.10;46.20
48551;DHT22;34397;51.176;6.738;2022-09-09T13:14:15;21.30;44.40
48551;DHT22;34397;51.176;6.738;2022-09-09T13:16:56;21.50;44.00
48551;DHT22;34397;51.176;6.738;2022-09-09T13:19:32;21.50;43.70
48551;DHT22;34397;51.176;6.738;2022-09-09T13:22:13;21.40;44.40
48551;DHT22;34397;51.176;6.738;2022-09-09T13:24:47;21.50;45.30
48551;DHT22;34397;51.176;6.738;2022-09-09T13:27:25;21.70;45.00
48551;DHT22;34397;51.176;6.738;2022-09-09T13:29:59;21.60;44.00
48551;DHT22;34397;51.176;6.738;2022-09-09T13:32:32;21.60;43.90
48551;DHT22;34397;51.176;6.738;2022-09-09T13:35:22;21.40;44.10
48551;DHT22;34397;51.176;6.738;2022-09-09T13:37:55;21.30;44.40
48551;DHT22;34397;51.176;6.738;2022-09-09T13:40:29;21.20;45.30
48551;DHT22;34397;51.176;6.738;2022-09-09T13:43:01;21.10;44.80
48551;DHT22;34397;51.176;6.738;2022-09-09T13:45:33;20.90;45.50
48551;DHT22;34397;51.176;6.738;2022-09-09T13:48:10;20.90;46.80
48551;DHT22;34397;51.176;6.738;2022-09-09T13:50:54;20.90;46.20
48551;DHT22;34397;51.176;6.738;2022-09-09T13:53:26;20.80;46.10
48551;DHT22;34397;51.176;6.738;2022-09-09T13:56:00;20.50;47.00
48551;DHT22;34397;51.176;6.738;2022-09-09T13:58:32;20.30;47.50
48551;DHT22;34397;51.176;6.738;2022-09-09T14:01:04;20.10;48.80
48551;DHT22;34397;51.176;6.738;2022-09-09T14:03:36;19.90;48.90
48551;DHT22;34397;51.176;6.738;2022-09-09T14:06:08;19.90;47.90
48551;DHT22;34397;51.176;6.738;2022-09-09T14:08:40;20.00;48.60
48551;DHT22;34397;51.176;6.738;2022-09-09T14:11:13;20.10;48.30
48551;DHT22;34397;51.176;6.738;2022-09-09T14:13:46;20.20;47.00
48551;DHT22;34397;51.176;6.738;2022-09-09T14:16:20;20.20;46.50
48551;DHT22;34397;51.176;6.738;2022-09-09T14:18:52;20.30;46.80
48551;DHT22;34397;51.176;6.738;2022-09-09T14:21:24;20.30;47.50
48551;DHT22;34397;51.176;6.738;2022-09-09T14:23:56;20.30;46.60
48551;DHT22;34397;51.176;6.738;2022-09-09T14:26:30;20.30;47.00
48551;DHT22;34397;51.176;6.738;2022-09-09T14:29:02;20.10;47.00
48551;DHT22;34397;51.176;6.738;2022-09-09T14:31:34;19.80;47.20
48551;DHT22;34397;51.176;6.738;2022-09-09T14:34:06;19.70;48.10
48551;DHT22;34397;51.176;6.738;2022-09-09T14:36:38;19.50;48.20
48551;DHT22;34397;51.176;6.738;2022-09-09T14:39:11;19.30;47.60
48551;DHT22;34397;51.176;6.738;2022-09-09T14:41:44;19.00;50.00
48551;DHT22;34397;51.176;6.738;2022-09-09T14:44:16;18.70;52.50
48551;DHT22;34397;51.176;6.738;2022-09-09T14:46:48;18.40;53.30
48551;DHT22;34397;51.176;6.738;2022-09-09T14:49:21;18.00;53.40
48551;DHT22;34397;51.176;6.738;2022-09-09T14:51:53;17.70;55.80
48551;DHT22;34397;51.176;6.738;2022-09-09T14:54:24;17.40;56.00
48551;DHT22;34397;51.176;6.738;2022-09-09T14:56:58;17.10;58.80
48551;DHT22;34397;51.176;6.738;2022-09-09T14:59:30;16.90;60.80
48551;DHT22;34397;51.176;6.738;2022-09-09T15:02:01;16.70;62.00
48551;DHT22;34397;51.176;6.738;2022-09-09T15:04:34;16.60;62.80
48551;DHT22;34397;51.176;6.738;2022-09-09T15:07:06;16.50;63.50
48551;DHT22;34397;51.176;6.738;2022-09-09T15:09:38;16.50;63.50
48551;DHT22;34397;51.176;6.738;2022-09-09T15:12:11;16.50;63.10
48551;DHT22;34397;51.176;6.738;2022-09-09T15:14:44;16.50;63.40
48551;DHT22;34397;51.176;6.738;2022-09-09T15:17:17;16.60;64.20
48551;DHT22;34397;51.176;6.738;2022-09-09T15:19:48;16.70;64.50
48551;DHT22;34397;51.176;6.738;2022-09-09T15:22:21;16.80;63.60
48551;DHT22;34397;51.176;6.738;2022-09-09T15:24:54;16.90;63.60
48551;DHT22;34397;51.176;6.738;2022-09-09T15:27:27;17.10;63.20
48551;DHT22;34397;51.176;6.738;2022-09-09T15:29:59;17.20;62.90
48551;DHT22;34397;51.176;6.738;2022-09-09T15:32:31;17.40;61.20
48551;DHT22;34397;51.176;6.738;2022-09-09T15:35:06;17.50;60.90
48551;DHT22;34397;51.176;6.738;2022-09-09T15:37:38;17.70;60.90
48551;DHT22;34397;51.176;6.738;2022-09-09T15:40:10;17.70;62.10
48551;DHT22;34397;51.176;6.738;2022-09-09T15:42:45;17.80;61.40
48551;DHT22;34397;51.176;6.738;2022-09-09T15:45:16;17.90;61.10
48551;DHT22;34397;51.176;6.738;2022-09-09T15:47:48;17.90;60.50
48551;DHT22;34397;51.176;6.738;2022-09-09T15:50:20;18.00;60.60
48551;DHT22;34397;51.176;6.738;2022-09-09T15:52:52;18.00;60.70
48551;DHT22;34397;51.176;6.738;2022-09-09T15:55:25;18.00;62.30
48551;DHT22;34397;51.176;6.738;2022-09-09T15:57:58;18.00;61.20
48551;DHT22;34397;51.176;6.738;2022-09-09T16:00:31;18.00;61.70
48551;DHT22;34397;51.176;6.738;2022-09-09T16:03:04;18.00;63.10
48551;DHT22;34397;51.176;6.738;2022-09-09T16:05:37;18.00;61.20
48551;DHT22;34397;51.176;6.738;2022-09-09T16:08:09;17.90;63.00
48551;DHT22;34397;51.176;6.738;2022-09-09T16:10:41;17.90;62.50
48551;DHT22;34397;51.176;6.738;2022-09-09T16:13:15;17.90;62.70
48551;DHT22;34397;51.176;6.738;2022-09-09T16:15:53;17.80;64.80
48551;DHT22;34397;51.176;6.738;2022-09-09T16:18:25;17.80;66.00
48551;DHT22;34397;51.176;6.738;2022-09-09T16:20:57;17.80;63.40
48551;DHT22;34397;51.176;6.738;2022-09-09T16:23:29;17.80;63.70
48551;DHT22;34397;51.176;6.738;2022-09-09T16:26:01;17.80;64.00
48551;DHT22;34397;51.176;6.738;2022-09-09T16:28:35;17.80;64.20